White Plains, Kentucky
Current Conditions -  °F | °C
As of 4:55 PM on Tuesday 27 Jan 2015 (Local Time) from K2I0 Reporting Station
Overcast Overcast  
Wind Chill: 30°   Ceiling: 3200
Heat Index: 37°   Visibility: 7mi
Dew Point: 33°   Wind: 9mph
Humidity: 87%   Direction: 10°N
Pressure: 30.19"   Gusts: NA
Location:  37.18°N, 87.38°W
Report Text: K2I0 272255Z AUTO 01008KT 7SM SCT017 BKN032 OVC039 03/01 A3019 RMK AO2 T00250005
Loading
Personal Weather Stations






























Interactive Weather Map New forecast layout! Learn more

10-Day Weather Forecast

Advertisements
Track Severe Weather on mobile